createdAt,value
2017-10-04T00:00:58.653Z,25.60
2017-10-04T00:03:30.267Z,25.60
2017-10-04T00:06:00.774Z,25.60
2017-10-04T00:08:31.272Z,25.70
2017-10-04T00:11:01.790Z,25.70
2017-10-04T00:13:33.046Z,25.80
2017-10-04T00:16:03.792Z,25.80
2017-10-04T00:18:34.312Z,25.90
2017-10-04T00:21:05.072Z,25.90
2017-10-04T00:23:35.589Z,26.00
2017-10-04T00:26:06.109Z,26.00
2017-10-04T00:28:36.620Z,26.00
2017-10-04T00:31:07.910Z,26.20
2017-10-04T00:33:38.717Z,26.20
2017-10-04T00:36:09.261Z,26.20
2017-10-04T00:38:39.764Z,26.30
2017-10-04T00:41:10.326Z,26.30
2017-10-04T00:43:40.819Z,26.40
2017-10-04T00:46:12.448Z,26.50
2017-10-04T00:48:42.973Z,26.50
2017-10-04T00:51:13.814Z,26.60
2017-10-04T00:53:44.330Z,26.70
2017-10-04T00:56:14.868Z,26.80
2017-10-04T00:58:45.380Z,26.80
2017-10-04T01:01:15.893Z,26.90
2017-10-04T01:03:46.835Z,27.10
2017-10-04T01:06:17.337Z,27.00
2017-10-04T01:08:47.844Z,27.10
2017-10-04T01:11:19.126Z,27.20
2017-10-04T01:13:50.571Z,27.20
2017-10-04T01:16:21.993Z,27.30
2017-10-04T01:18:53.288Z,27.40
2017-10-04T01:21:24.097Z,27.40
2017-10-04T01:23:54.605Z,27.40
2017-10-04T01:26:25.868Z,27.50
2017-10-04T01:28:56.392Z,27.50
2017-10-04T01:31:26.921Z,27.60
2017-10-04T01:33:57.868Z,27.70
2017-10-04T01:36:28.384Z,27.80
2017-10-04T01:38:59.772Z,27.90
2017-10-04T01:41:30.268Z,28.00
2017-10-04T01:44:00.795Z,28.10
2017-10-04T01:46:31.275Z,28.20
2017-10-04T01:49:01.799Z,28.20
2017-10-04T01:51:33.356Z,28.30
2017-10-04T01:54:03.840Z,28.40
2017-10-04T01:56:34.364Z,28.60
2017-10-04T01:59:04.853Z,28.60
2017-10-04T02:01:35.356Z,28.70
2017-10-04T02:04:07.725Z,28.80
2017-10-04T02:06:38.269Z,28.90
2017-10-04T02:09:08.977Z,29.00
2017-10-04T02:11:39.479Z,29.00
2017-10-04T02:14:09.990Z,29.10
2017-10-04T02:16:41.276Z,29.30
2017-10-04T02:19:11.784Z,29.30
2017-10-04T02:21:42.521Z,29.40
2017-10-04T02:24:13.012Z,29.50
2017-10-04T02:26:44.300Z,29.70
2017-10-04T02:29:14.797Z,29.60
2017-10-04T02:31:46.096Z,29.90
2017-10-04T02:34:17.032Z,29.80
2017-10-04T02:36:47.563Z,30.00
2017-10-04T02:39:18.485Z,30.10
2017-10-04T02:41:49.013Z,30.20
2017-10-04T02:44:19.513Z,30.30
2017-10-04T02:46:50.801Z,30.40
2017-10-04T02:49:21.356Z,30.40
2017-10-04T02:51:52.369Z,30.40
2017-10-04T02:54:22.882Z,30.40
2017-10-04T02:56:53.389Z,30.40
2017-10-04T02:59:24.697Z,30.40
2017-10-04T03:01:55.229Z,30.30
2017-10-04T03:04:26.044Z,30.30
2017-10-04T03:06:56.560Z,30.40
2017-10-04T03:09:27.389Z,30.40
2017-10-04T03:11:57.885Z,30.60
2017-10-04T03:14:29.171Z,30.70
2017-10-04T03:16:59.689Z,30.70
2017-10-04T03:19:30.188Z,30.80
2017-10-04T03:22:01.814Z,31.10
2017-10-04T03:24:32.330Z,31.10
2017-10-04T03:27:02.851Z,31.20
2017-10-04T03:29:33.369Z,31.30
2017-10-04T03:32:04.723Z,31.40
2017-10-04T03:34:35.578Z,31.40
2017-10-04T03:37:06.084Z,31.40
2017-10-04T03:39:36.841Z,31.50
2017-10-04T03:42:07.356Z,31.50
2017-10-04T03:44:37.881Z,31.60
2017-10-04T03:47:08.381Z,31.60
2017-10-04T03:49:38.927Z,31.70
2017-10-04T03:52:09.756Z,31.70
2017-10-04T03:54:40.312Z,31.70
2017-10-04T03:57:11.637Z,31.80
2017-10-04T03:59:42.230Z,31.70
2017-10-04T04:02:13.504Z,31.80
2017-10-04T04:04:44.015Z,31.80
2017-10-04T04:07:15.276Z,32.00
2017-10-04T04:09:46.329Z,31.90
2017-10-04T04:12:16.836Z,32.00
2017-10-04T04:14:47.354Z,32.00
2017-10-04T04:17:18.738Z,32.20
2017-10-04T04:19:49.253Z,32.10
2017-10-04T04:22:19.931Z,32.30
2017-10-04T04:24:50.448Z,32.40
2017-10-04T04:27:21.176Z,32.40
2017-10-04T04:29:51.696Z,32.50
2017-10-04T04:32:22.220Z,32.60
2017-10-04T04:34:52.717Z,32.70
2017-10-04T04:37:23.985Z,32.70
2017-10-04T04:39:54.864Z,32.60
2017-10-04T04:42:25.414Z,32.70
2017-10-04T04:44:56.689Z,32.50
2017-10-04T04:47:27.227Z,32.50
2017-10-04T04:49:57.739Z,32.40
2017-10-04T04:52:28.641Z,32.30
2017-10-04T04:55:00.502Z,32.20
2017-10-04T04:57:32.509Z,32.20
2017-10-04T05:00:03.252Z,32.30
2017-10-04T05:02:33.781Z,32.50
2017-10-04T05:05:04.297Z,32.70
2017-10-04T05:07:34.832Z,32.80
2017-10-04T05:10:05.781Z,32.90
2017-10-04T05:12:36.284Z,33.00
2017-10-04T05:15:07.552Z,33.10
2017-10-04T05:17:38.090Z,33.00
2017-10-04T05:20:08.609Z,33.10
2017-10-04T05:22:39.401Z,33.00
2017-10-04T05:25:09.917Z,32.80
2017-10-04T05:27:40.828Z,32.50
2017-10-04T05:30:11.330Z,32.20
2017-10-04T05:32:41.828Z,32.00
2017-10-04T05:35:13.116Z,31.60
2017-10-04T05:37:43.633Z,31.60
2017-10-04T05:40:14.419Z,31.50
2017-10-04T05:42:44.974Z,31.30
2017-10-04T05:45:16.253Z,31.10
2017-10-04T05:47:46.781Z,31.10
2017-10-04T05:50:17.598Z,31.00
2017-10-04T05:52:48.513Z,30.80
2017-10-04T05:55:19.805Z,30.80
2017-10-04T05:57:51.089Z,30.80
2017-10-04T06:00:22.876Z,30.70
2017-10-04T06:02:54.615Z,30.70
2017-10-04T06:05:25.580Z,30.70
2017-10-04T06:07:57.328Z,30.60
2017-10-04T06:10:29.303Z,30.50
2017-10-04T06:13:00.361Z,30.50
2017-10-04T06:15:31.385Z,30.40
2017-10-04T06:18:03.132Z,30.40
2017-10-04T06:20:34.888Z,30.40
2017-10-04T06:23:07.739Z,30.30
2017-10-04T06:25:38.712Z,30.30
2017-10-04T06:28:10.964Z,30.10
2017-10-04T06:30:41.952Z,30.00
2017-10-04T06:33:12.950Z,29.90
2017-10-04T06:35:44.704Z,29.60
2017-10-04T06:38:15.780Z,29.60
2017-10-04T06:40:48.004Z,29.40
2017-10-04T06:43:19.004Z,29.30
2017-10-04T06:45:50.247Z,29.30
2017-10-04T06:48:21.239Z,29.50
2017-10-04T06:50:52.553Z,29.70
2017-10-04T06:53:24.088Z,29.90
2017-10-04T06:55:55.074Z,30.10
2017-10-04T06:58:26.407Z,30.40
2017-10-04T07:00:57.389Z,30.70
2017-10-04T07:03:29.181Z,31.20
2017-10-04T07:06:00.186Z,31.20
2017-10-04T07:08:32.025Z,31.60
2017-10-04T07:11:04.187Z,31.60
2017-10-04T07:13:35.598Z,31.80
2017-10-04T07:16:07.180Z,31.90
2017-10-04T07:18:39.190Z,32.00
2017-10-04T07:21:10.184Z,32.20
2017-10-04T07:23:41.533Z,32.20
2017-10-04T07:26:12.530Z,32.30
2017-10-04T07:28:43.821Z,32.20
2017-10-04T07:31:15.585Z,32.00
2017-10-04T07:33:48.920Z,32.00
2017-10-04T07:36:19.913Z,31.90
2017-10-04T07:38:50.891Z,31.90
2017-10-04T07:41:22.008Z,31.90
2017-10-04T07:43:52.984Z,31.90
2017-10-04T07:46:24.015Z,31.90
2017-10-04T07:48:55.001Z,31.90
2017-10-04T07:51:25.998Z,31.80
2017-10-04T07:53:57.364Z,31.70
2017-10-04T07:56:28.395Z,31.50
2017-10-04T07:58:59.412Z,31.50
2017-10-04T08:01:31.129Z,31.40
2017-10-04T08:04:02.150Z,31.40
2017-10-04T08:06:33.116Z,31.50
2017-10-04T08:09:04.126Z,31.70
2017-10-04T08:11:35.508Z,31.90
2017-10-04T08:14:06.497Z,32.00
2017-10-04T08:16:37.476Z,32.10
2017-10-04T08:19:08.464Z,32.20
2017-10-04T08:21:39.446Z,32.30
2017-10-04T08:24:11.859Z,32.40
2017-10-04T08:26:44.156Z,32.60
2017-10-04T08:29:20.263Z,32.60
2017-10-04T08:31:51.592Z,32.70
2017-10-04T08:34:22.592Z,32.70
2017-10-04T08:36:54.885Z,32.60
2017-10-04T08:39:25.897Z,32.60
2017-10-04T08:41:58.875Z,32.50
2017-10-04T08:44:30.657Z,32.40
2017-10-04T08:47:12.302Z,32.50
2017-10-04T08:49:43.299Z,32.40
2017-10-04T08:52:14.276Z,32.20
2017-10-04T08:54:45.520Z,32.20
2017-10-04T08:57:16.519Z,32.10
2017-10-04T08:59:47.504Z,32.00
2017-10-04T09:02:18.500Z,32.00
2017-10-04T09:05:00.005Z,32.00
2017-10-04T09:07:31.476Z,32.00
2017-10-04T09:10:02.439Z,31.90
2017-10-04T09:12:34.173Z,31.90
2017-10-04T09:15:05.160Z,31.90
2017-10-04T09:17:36.132Z,31.90
2017-10-04T09:20:07.649Z,31.90
2017-10-04T09:22:38.625Z,31.90
2017-10-04T09:25:09.985Z,31.90
2017-10-04T09:27:40.965Z,31.90
2017-10-04T09:30:12.799Z,31.80
2017-10-04T09:32:43.777Z,31.70
2017-10-04T09:35:14.774Z,31.70
2017-10-04T09:37:46.051Z,31.70
2017-10-04T09:40:17.799Z,31.60
2017-10-04T09:42:49.536Z,31.60
2017-10-04T09:45:20.506Z,31.60
2017-10-04T09:47:52.273Z,31.50
2017-10-04T09:50:23.795Z,31.50
2017-10-04T09:52:54.793Z,31.40
2017-10-04T09:55:26.192Z,31.40
2017-10-04T09:57:57.173Z,31.30
2017-10-04T10:00:28.221Z,31.30
2017-10-04T10:02:59.195Z,31.20
2017-10-04T10:05:30.213Z,31.20
2017-10-04T10:08:01.822Z,31.10
2017-10-04T10:10:33.583Z,31.10
2017-10-04T10:13:05.338Z,31.00
2017-10-04T10:15:37.133Z,31.00
2017-10-04T10:18:08.126Z,31.00
2017-10-04T10:20:40.304Z,30.90
2017-10-04T10:23:12.069Z,30.80
2017-10-04T10:25:43.085Z,30.80
2017-10-04T10:28:14.117Z,30.80
2017-10-04T10:30:45.095Z,30.80
2017-10-04T10:33:16.124Z,30.70
2017-10-04T10:35:47.936Z,30.60
2017-10-04T10:38:20.039Z,30.60
2017-10-04T10:40:51.781Z,30.50
2017-10-04T10:43:22.774Z,30.40
2017-10-04T10:45:53.793Z,30.40
2017-10-04T10:48:24.852Z,30.40
2017-10-04T10:50:56.364Z,30.30
2017-10-04T10:53:28.125Z,30.20
2017-10-04T10:55:59.882Z,30.20
2017-10-04T10:58:31.629Z,30.20
2017-10-04T11:01:02.639Z,30.20
2017-10-04T11:03:33.902Z,30.20
2017-10-04T11:06:04.893Z,30.10
2017-10-04T11:08:36.317Z,30.10
2017-10-04T11:11:08.117Z,30.00
2017-10-04T11:13:39.109Z,30.00
2017-10-04T11:16:10.116Z,30.00
2017-10-04T11:18:41.109Z,29.90
2017-10-04T11:21:13.348Z,29.90
2017-10-04T11:23:44.347Z,29.90
2017-10-04T11:26:15.360Z,29.90
2017-10-04T11:28:47.101Z,29.80
2017-10-04T11:31:18.932Z,29.80
2017-10-04T11:33:50.285Z,29.80
2017-10-04T11:36:21.287Z,29.80
2017-10-04T11:38:52.684Z,29.70
2017-10-04T11:41:23.649Z,29.70
2017-10-04T11:43:55.385Z,29.70
2017-10-04T11:46:26.366Z,29.70
2017-10-04T11:48:57.324Z,29.70
2017-10-04T11:51:28.833Z,29.70
2017-10-04T11:54:00.618Z,29.70
2017-10-04T11:56:31.616Z,29.60
2017-10-04T11:59:03.357Z,29.60
2017-10-04T12:01:34.384Z,29.60
2017-10-04T12:04:05.745Z,29.60
2017-10-04T12:06:37.498Z,29.60
2017-10-04T12:09:08.952Z,29.60
2017-10-04T12:11:40.737Z,29.60
2017-10-04T12:14:12.505Z,29.60
2017-10-04T12:16:45.106Z,29.60
2017-10-04T12:19:16.119Z,29.50
2017-10-04T12:21:49.176Z,29.50
2017-10-04T12:24:20.170Z,29.50
2017-10-04T12:26:51.203Z,29.40
2017-10-04T12:29:22.180Z,29.40
2017-10-04T12:31:53.173Z,29.30
2017-10-04T12:34:25.124Z,29.20
2017-10-04T12:36:56.869Z,29.20
2017-10-04T12:39:28.204Z,29.20
2017-10-04T12:41:59.248Z,29.20
2017-10-04T12:44:30.225Z,29.20
2017-10-04T12:47:01.233Z,29.10
2017-10-04T12:49:32.225Z,29.10
2017-10-04T12:52:03.729Z,29.10
2017-10-04T12:54:34.708Z,29.10
2017-10-04T12:57:05.760Z,29.00
2017-10-04T12:59:36.747Z,29.00
2017-10-04T13:02:07.745Z,28.90
2017-10-04T13:04:40.131Z,28.90
2017-10-04T13:07:11.129Z,28.90
2017-10-04T13:09:43.225Z,28.80
2017-10-04T13:12:14.855Z,28.80
2017-10-04T13:14:45.872Z,28.80
2017-10-04T13:17:17.617Z,28.80
2017-10-04T13:19:48.581Z,28.80
2017-10-04T13:22:20.653Z,28.80
2017-10-04T13:24:52.545Z,28.70
2017-10-04T13:27:23.560Z,28.70
2017-10-04T13:29:54.877Z,28.70
2017-10-04T13:32:26.588Z,28.70
2017-10-04T13:34:58.139Z,28.60
2017-10-04T13:37:29.125Z,28.60
2017-10-04T13:40:00.997Z,28.50
2017-10-04T13:42:32.801Z,28.50
2017-10-04T13:45:03.783Z,28.50
2017-10-04T13:47:34.811Z,28.40
2017-10-04T13:50:05.853Z,28.40
2017-10-04T13:52:37.297Z,28.30
2017-10-04T13:55:08.268Z,28.20
2017-10-04T13:57:40.066Z,28.20
2017-10-04T14:00:11.078Z,28.20
2017-10-04T14:02:42.138Z,28.20
2017-10-04T14:05:13.553Z,28.10
2017-10-04T14:07:45.545Z,28.10
2017-10-04T14:10:16.582Z,28.10
2017-10-04T14:12:47.622Z,28.10
2017-10-04T14:15:18.584Z,28.10
2017-10-04T14:17:49.633Z,28.10
2017-10-04T14:20:20.628Z,28.10
2017-10-04T14:22:54.256Z,28.20
2017-10-04T14:25:25.257Z,28.10
2017-10-04T14:27:57.022Z,28.20
2017-10-04T14:30:28.752Z,28.20
2017-10-04T14:32:59.812Z,28.20
2017-10-04T14:35:31.971Z,28.30
2017-10-04T14:38:03.000Z,28.30
2017-10-04T14:40:33.976Z,28.20
2017-10-04T14:43:05.716Z,28.30
2017-10-04T14:45:37.541Z,28.30
2017-10-04T14:48:09.085Z,28.30
2017-10-04T14:50:40.086Z,28.30
2017-10-04T14:53:12.444Z,28.30
2017-10-04T14:55:44.208Z,28.20
2017-10-04T14:58:16.152Z,28.20
2017-10-04T15:00:48.332Z,28.20
2017-10-04T15:03:20.197Z,28.30
2017-10-04T15:05:53.152Z,28.30
2017-10-04T15:08:24.165Z,28.20
2017-10-04T15:10:56.117Z,28.20
2017-10-04T15:13:27.181Z,28.30
2017-10-04T15:15:58.447Z,28.30
2017-10-04T15:18:29.554Z,28.20
2017-10-04T15:21:00.777Z,28.20
2017-10-04T15:23:32.434Z,28.20
2017-10-04T15:26:04.386Z,28.20
2017-10-04T15:28:35.602Z,28.20
2017-10-04T15:31:06.697Z,28.20
2017-10-04T15:33:37.688Z,28.20
2017-10-04T15:36:08.917Z,28.10
2017-10-04T15:38:40.221Z,28.10
2017-10-04T15:41:11.777Z,28.10
2017-10-04T15:43:42.764Z,28.00
2017-10-04T15:46:14.263Z,28.00
2017-10-04T15:48:46.115Z,28.00
2017-10-04T15:51:17.134Z,28.00
2017-10-04T15:53:49.285Z,28.10
2017-10-04T15:56:20.377Z,28.10
2017-10-04T15:58:51.364Z,28.10
2017-10-04T16:01:22.356Z,28.10
2017-10-04T16:03:53.878Z,28.10
2017-10-04T16:06:27.747Z,28.10
2017-10-04T16:09:03.901Z,28.10
2017-10-04T16:11:40.269Z,28.10
2017-10-04T16:14:11.262Z,28.00
2017-10-04T16:16:43.576Z,28.00
2017-10-04T16:19:15.194Z,28.00
2017-10-04T16:21:46.177Z,28.00
2017-10-04T16:24:17.522Z,28.00
2017-10-04T16:26:49.159Z,28.00
2017-10-04T16:29:20.660Z,28.00
2017-10-04T16:31:53.596Z,27.90
2017-10-04T16:34:24.602Z,27.90
2017-10-04T16:36:56.329Z,27.80
2017-10-04T16:39:27.280Z,27.80
2017-10-04T16:41:58.958Z,27.70
2017-10-04T16:44:30.889Z,27.50
2017-10-04T16:47:01.860Z,27.70
2017-10-04T16:49:33.632Z,27.70
2017-10-04T16:52:04.624Z,27.70
2017-10-04T16:54:35.606Z,27.70
2017-10-04T16:57:06.611Z,27.60
2017-10-04T16:59:38.070Z,27.60
2017-10-04T17:02:09.845Z,27.50
2017-10-04T17:04:40.863Z,27.50
2017-10-04T17:07:11.840Z,27.50
2017-10-04T17:09:42.836Z,27.50
2017-10-04T17:12:14.196Z,27.50
2017-10-04T17:14:45.972Z,27.50
2017-10-04T17:17:17.800Z,27.50
2017-10-04T17:19:48.761Z,27.40
2017-10-04T17:22:20.513Z,27.40
2017-10-04T17:24:52.679Z,27.40
2017-10-04T17:27:24.422Z,27.40
2017-10-04T17:29:55.771Z,27.40
2017-10-04T17:32:26.717Z,27.40
2017-10-04T17:34:57.698Z,27.40
2017-10-04T17:37:28.696Z,27.40
2017-10-04T17:39:59.659Z,27.40
2017-10-04T17:42:30.788Z,27.30
2017-10-04T17:45:02.552Z,27.20
2017-10-04T17:47:34.317Z,27.20
2017-10-04T17:50:05.333Z,27.20
2017-10-04T17:52:37.141Z,27.20
2017-10-04T17:55:09.144Z,27.20
2017-10-04T17:57:40.124Z,27.20
2017-10-04T18:00:11.547Z,27.20
2017-10-04T18:02:43.372Z,27.10
2017-10-04T18:05:14.384Z,27.10
2017-10-04T18:07:45.399Z,27.10
2017-10-04T18:10:17.128Z,27.10
2017-10-04T18:12:48.485Z,27.10
2017-10-04T18:15:19.517Z,27.10
2017-10-04T18:17:50.493Z,27.10
2017-10-04T18:20:22.245Z,27.10
2017-10-04T18:22:54.007Z,27.10
2017-10-04T18:25:26.281Z,27.10
2017-10-04T18:27:57.305Z,27.10
2017-10-04T18:30:29.536Z,27.00
2017-10-04T18:33:00.512Z,27.00
2017-10-04T18:35:32.273Z,27.00
2017-10-04T18:38:04.014Z,27.00
2017-10-04T18:40:35.118Z,26.90
2017-10-04T18:43:06.505Z,27.00
2017-10-04T18:45:37.485Z,27.00
2017-10-04T18:48:08.465Z,27.00
2017-10-04T18:50:39.444Z,27.00
2017-10-04T18:53:11.197Z,27.00
2017-10-04T18:55:43.512Z,27.00
2017-10-04T18:58:14.533Z,26.90
2017-10-04T19:00:45.813Z,26.90
2017-10-04T19:03:16.800Z,26.90
2017-10-04T19:05:48.569Z,26.90
2017-10-04T19:08:20.013Z,26.90
2017-10-04T19:10:51.737Z,26.90
2017-10-04T19:13:23.079Z,26.80
2017-10-04T19:15:54.051Z,26.90
2017-10-04T19:18:25.817Z,26.80
2017-10-04T19:20:57.565Z,26.80
2017-10-04T19:23:29.324Z,26.80
2017-10-04T19:26:01.484Z,26.80
2017-10-04T19:28:33.214Z,26.80
2017-10-04T19:31:04.210Z,26.80
2017-10-04T19:33:35.256Z,26.80
2017-10-04T19:36:06.236Z,26.80
2017-10-04T19:38:37.570Z,26.80
2017-10-04T19:41:08.557Z,26.90
2017-10-04T19:43:40.700Z,26.90
2017-10-04T19:46:11.692Z,26.80
2017-10-04T19:48:42.680Z,26.90
2017-10-04T19:51:13.653Z,26.80
2017-10-04T19:53:45.401Z,26.80
2017-10-04T19:56:17.612Z,26.80
2017-10-04T19:58:48.676Z,26.80
2017-10-04T20:01:19.729Z,26.80
2017-10-04T20:03:50.687Z,26.80
2017-10-04T20:06:22.713Z,26.70
2017-10-04T20:08:54.136Z,26.70
2017-10-04T20:11:25.143Z,26.70
2017-10-04T20:13:57.552Z,26.60
2017-10-04T20:16:28.576Z,26.60
2017-10-04T20:18:59.584Z,26.60
2017-10-04T20:21:30.629Z,26.60
2017-10-04T20:24:02.401Z,26.60
2017-10-04T20:26:34.538Z,26.60
2017-10-04T20:29:05.515Z,26.60
2017-10-04T20:31:36.542Z,26.60
2017-10-04T20:34:08.317Z,26.50
2017-10-04T20:36:39.297Z,26.50
2017-10-04T20:39:10.663Z,26.50
2017-10-04T20:41:41.880Z,26.50
2017-10-04T20:44:13.373Z,26.50
2017-10-04T20:46:44.370Z,26.60
2017-10-04T20:49:15.323Z,26.60
2017-10-04T20:51:46.312Z,26.50
2017-10-04T20:54:18.071Z,26.60
2017-10-04T20:56:50.334Z,26.50
2017-10-04T20:59:22.100Z,26.50
2017-10-04T21:01:53.197Z,26.50
2017-10-04T21:04:24.164Z,26.50
2017-10-04T21:06:55.898Z,26.50
2017-10-04T21:09:27.249Z,26.40
2017-10-04T21:11:58.224Z,26.50
2017-10-04T21:14:30.049Z,26.50
2017-10-04T21:17:01.020Z,26.50
2017-10-04T21:19:32.947Z,26.40
2017-10-04T21:22:03.933Z,26.40
2017-10-04T21:24:34.928Z,26.40
2017-10-04T21:27:06.081Z,26.40
2017-10-04T21:29:37.048Z,26.40
2017-10-04T21:32:08.060Z,26.40
2017-10-04T21:34:39.044Z,26.40
2017-10-04T21:37:10.033Z,26.30
2017-10-04T21:39:41.273Z,26.30
2017-10-04T21:42:12.260Z,26.30
2017-10-04T21:44:43.589Z,26.30
2017-10-04T21:47:15.304Z,26.20
2017-10-04T21:49:46.276Z,26.20
2017-10-04T21:52:18.060Z,26.20
2017-10-04T21:54:49.121Z,26.20
2017-10-04T21:57:20.364Z,26.20
2017-10-04T21:59:51.409Z,26.20
2017-10-04T22:02:22.382Z,26.20
2017-10-04T22:04:53.377Z,26.10
2017-10-04T22:07:24.361Z,26.10
2017-10-04T22:09:55.623Z,26.10
2017-10-04T22:12:26.616Z,26.10
2017-10-04T22:14:57.595Z,26.10
2017-10-04T22:17:28.591Z,26.10
2017-10-04T22:19:59.573Z,26.00
2017-10-04T22:22:30.544Z,26.00
2017-10-04T22:25:01.516Z,25.90
2017-10-04T22:27:32.829Z,26.00
2017-10-04T22:30:05.425Z,26.00
2017-10-04T22:32:37.215Z,26.00
2017-10-04T22:35:08.190Z,26.00
2017-10-04T22:37:39.941Z,26.00
2017-10-04T22:40:10.895Z,26.00
2017-10-04T22:42:42.665Z,26.00
2017-10-04T22:45:13.661Z,26.00
2017-10-04T22:47:44.669Z,26.00
2017-10-04T22:50:15.676Z,26.00
2017-10-04T22:52:47.489Z,26.00
2017-10-04T22:55:18.493Z,26.00
2017-10-04T22:57:49.480Z,26.00
2017-10-04T23:00:20.449Z,25.90
2017-10-04T23:02:52.254Z,26.00
2017-10-04T23:05:23.472Z,26.00
2017-10-04T23:07:54.482Z,26.00
2017-10-04T23:10:25.829Z,26.00
2017-10-04T23:12:57.633Z,26.00
2017-10-04T23:15:28.621Z,26.00
2017-10-04T23:17:59.608Z,26.00
2017-10-04T23:20:30.585Z,26.00
2017-10-04T23:23:01.946Z,26.00
2017-10-04T23:25:32.937Z,26.10
2017-10-04T23:28:04.447Z,26.10
2017-10-04T23:30:36.181Z,26.10
2017-10-04T23:33:07.181Z,26.10
2017-10-04T23:35:38.172Z,26.10
2017-10-04T23:38:09.171Z,26.10
2017-10-04T23:40:40.555Z,26.20
2017-10-04T23:43:11.525Z,26.20
2017-10-04T23:45:43.293Z,26.40
2017-10-04T23:48:14.261Z,26.40
2017-10-04T23:50:45.234Z,26.40
2017-10-04T23:53:16.722Z,26.50
2017-10-04T23:55:47.690Z,26.60
2017-10-04T23:58:19.027Z,26.70
